createdAt,value
2022-08-07T00:02:37.593Z,59.52
2022-08-07T00:04:45.364Z,59.51
2022-08-07T00:07:48.179Z,59.72
2022-08-07T00:11:00.775Z,59.64
2022-08-07T00:14:07.191Z,59.58
2022-08-07T00:17:13.509Z,59.50
2022-08-07T00:20:15.854Z,59.42
2022-08-07T00:23:34.586Z,59.25
2022-08-07T00:26:59.309Z,59.06
2022-08-07T00:29:59.226Z,58.85
2022-08-07T00:33:02.172Z,58.47
2022-08-07T00:36:06.904Z,58.35
2022-08-07T00:39:09.266Z,58.29
2022-08-07T00:42:18.945Z,58.36
2022-08-07T00:45:31.358Z,58.11
2022-08-07T00:48:33.810Z,57.70
2022-08-07T00:51:58.385Z,57.58
2022-08-07T00:55:00.143Z,57.84
2022-08-07T00:58:07.227Z,57.97
2022-08-07T01:01:10.072Z,58.13
2022-08-07T01:04:12.387Z,58.01
2022-08-07T01:07:29.455Z,57.94
2022-08-07T01:10:32.255Z,57.87
2022-08-07T01:13:37.159Z,57.54
2022-08-07T01:16:39.896Z,57.22
2022-08-07T01:19:53.899Z,56.92
2022-08-07T01:23:09.181Z,56.95
2022-08-07T01:26:17.539Z,56.83
2022-08-07T01:29:27.948Z,56.97
2022-08-07T01:32:34.588Z,56.57
2022-08-07T01:35:53.594Z,56.55
2022-08-07T01:38:58.466Z,56.61
2022-08-07T01:42:07.333Z,57.09
2022-08-07T01:45:36.186Z,57.11
2022-08-07T01:48:47.906Z,57.15
2022-08-07T01:52:03.652Z,56.71
2022-08-07T01:55:11.021Z,56.67
2022-08-07T01:58:33.175Z,56.75
2022-08-07T02:02:02.387Z,56.99
2022-08-07T02:05:16.073Z,56.59
2022-08-07T02:08:40.468Z,56.20
2022-08-07T02:12:03.310Z,56.03
2022-08-07T02:15:10.048Z,55.88
2022-08-07T02:18:14.136Z,55.59
2022-08-07T02:21:17.709Z,55.60
2022-08-07T02:24:21.896Z,55.87
2022-08-07T02:27:26.517Z,55.77
2022-08-07T02:30:39.397Z,55.65
2022-08-07T02:34:03.058Z,55.47
2022-08-07T02:37:08.775Z,55.82
2022-08-07T02:40:30.165Z,55.56
2022-08-07T02:43:39.440Z,55.77
2022-08-07T02:46:46.559Z,55.64
2022-08-07T02:49:56.507Z,55.76
2022-08-07T02:53:10.977Z,55.50
2022-08-07T02:56:21.058Z,55.64
2022-08-07T02:59:27.704Z,55.59
2022-08-07T03:02:32.474Z,55.93
2022-08-07T03:05:37.828Z,56.37
2022-08-07T03:08:41.294Z,56.63
2022-08-07T03:11:52.713Z,56.25
2022-08-07T03:15:07.601Z,56.83
2022-08-07T03:18:11.485Z,56.59
2022-08-07T03:21:20.438Z,56.66
2022-08-07T03:24:27.554Z,56.34
2022-08-07T03:27:59.490Z,56.37
2022-08-07T03:31:14.990Z,56.27
2022-08-07T03:34:22.358Z,56.45
2022-08-07T03:37:27.597Z,56.54
2022-08-07T03:40:36.306Z,56.58
2022-08-07T03:43:39.840Z,56.77
2022-08-07T03:47:13.306Z,56.85
2022-08-07T03:50:23.142Z,57.20
2022-08-07T03:54:00.653Z,57.35
2022-08-07T03:57:03.695Z,56.92
2022-08-07T04:00:11.678Z,56.75
2022-08-07T04:03:19.274Z,57.06
2022-08-07T04:06:37.258Z,57.06
2022-08-07T04:09:45.494Z,57.04
2022-08-07T04:12:54.388Z,57.35
2022-08-07T04:15:58.428Z,57.11
2022-08-07T04:19:04.061Z,57.11
2022-08-07T04:22:17.628Z,57.36
2022-08-07T04:25:23.917Z,57.04
2022-08-07T04:28:26.569Z,56.85
2022-08-07T04:31:38.380Z,56.99
2022-08-07T04:34:52.747Z,57.02
2022-08-07T04:38:03.106Z,56.58
2022-08-07T04:41:10.765Z,56.54
2022-08-07T04:44:22.639Z,56.38
2022-08-07T04:48:01.037Z,55.76
2022-08-07T04:51:05.801Z,56.06
2022-08-07T04:54:30.032Z,56.29
2022-08-07T04:58:11.156Z,56.02
2022-08-07T05:01:29.940Z,56.13
2022-08-07T05:04:57.050Z,56.13
2022-08-07T05:08:07.228Z,56.38
2022-08-07T05:11:26.341Z,56.24
2022-08-07T05:14:54.717Z,56.96
2022-08-07T05:18:09.217Z,56.78
2022-08-07T05:21:18.343Z,57.26
2022-08-07T05:24:42.079Z,56.94
2022-08-07T05:28:03.104Z,56.48
2022-08-07T05:31:16.585Z,56.01
2022-08-07T05:34:20.994Z,55.25
2022-08-07T05:37:30.648Z,55.56
2022-08-07T05:40:50.670Z,55.61
2022-08-07T05:44:12.205Z,55.09
2022-08-07T05:47:19.925Z,54.85
2022-08-07T05:50:23.995Z,54.73
2022-08-07T05:54:12.900Z,54.36
2022-08-07T05:56:51.266Z,54.53
2022-08-07T05:59:57.188Z,54.12
2022-08-07T06:03:04.713Z,53.53
2022-08-07T06:06:09.555Z,53.07
2022-08-07T06:09:12.259Z,53.38
2022-08-07T06:12:15.448Z,52.43
2022-08-07T06:15:19.929Z,51.81
2022-08-07T06:18:23.813Z,51.40
2022-08-07T06:22:14.841Z,50.55
2022-08-07T06:24:58.094Z,50.23
2022-08-07T06:28:06.135Z,49.67
2022-08-07T06:31:09.892Z,49.59
2022-08-07T06:34:12.665Z,49.58
2022-08-07T06:37:17.207Z,49.40
2022-08-07T06:40:23.075Z,48.59
2022-08-07T06:43:39.642Z,48.40
2022-08-07T06:46:42.873Z,48.18
2022-08-07T06:49:58.426Z,48.21
2022-08-07T06:53:04.592Z,47.15
2022-08-07T06:56:14.786Z,46.37
2022-08-07T07:00:12.288Z,45.87
2022-08-07T07:02:54.314Z,45.33
2022-08-07T07:06:03.651Z,44.46
2022-08-07T07:09:19.938Z,42.71
2022-08-07T07:12:48.402Z,43.66
2022-08-07T07:16:00.245Z,44.42
2022-08-07T07:19:33.887Z,44.91
2022-08-07T07:22:36.160Z,45.13
2022-08-07T07:26:34.318Z,45.88
2022-08-07T07:29:39.276Z,46.71
2022-08-07T07:32:40.386Z,46.53
2022-08-07T07:36:04.985Z,46.79
2022-08-07T07:39:10.171Z,46.59
2022-08-07T07:42:17.513Z,46.51
2022-08-07T07:46:36.618Z,46.52
2022-08-07T07:49:00.280Z,46.21
2022-08-07T07:52:16.944Z,46.12
2022-08-07T07:55:20.737Z,45.25
2022-08-07T07:58:40.292Z,45.19
2022-08-07T08:02:03.776Z,44.15
2022-08-07T08:05:14.171Z,43.64
2022-08-07T08:08:34.463Z,42.24
2022-08-07T08:11:59.603Z,40.14
2022-08-07T08:15:01.970Z,39.22
2022-08-07T08:18:17.446Z,40.04
2022-08-07T08:21:58.585Z,39.10
2022-08-07T08:25:24.844Z,38.59
2022-08-07T08:28:46.097Z,37.86
2022-08-07T08:32:16.976Z,37.38
2022-08-07T08:35:18.675Z,36.19
2022-08-07T08:38:26.026Z,37.57
2022-08-07T08:41:57.147Z,37.69
2022-08-07T08:45:14.316Z,38.57
2022-08-07T08:48:40.810Z,37.39
2022-08-07T08:52:14.256Z,37.66
2022-08-07T08:55:55.079Z,36.87
2022-08-07T08:59:00.161Z,36.17
2022-08-07T09:02:35.186Z,35.94
2022-08-07T09:06:04.052Z,35.44
2022-08-07T09:09:40.885Z,34.04
2022-08-07T09:12:52.960Z,33.25
2022-08-07T09:16:22.935Z,32.83
2022-08-07T09:19:51.821Z,32.28
2022-08-07T09:24:49.117Z,33.07
2022-08-07T09:26:53.190Z,33.72
2022-08-07T09:30:10.327Z,32.87
2022-08-07T09:33:52.627Z,32.78
2022-08-07T09:37:03.286Z,32.60
2022-08-07T09:40:22.049Z,32.19
2022-08-07T09:44:06.170Z,32.96
2022-08-07T09:47:58.122Z,30.55
2022-08-07T09:50:56.059Z,29.34
2022-08-07T09:54:05.372Z,27.88
2022-08-07T09:57:21.931Z,27.52
2022-08-07T10:00:32.628Z,29.32
2022-08-07T10:04:14.005Z,29.53
2022-08-07T10:07:52.870Z,29.46
2022-08-07T10:12:01.635Z,29.08
2022-08-07T10:15:26.535Z,29.71
2022-08-07T10:18:40.051Z,30.77
2022-08-07T10:22:16.157Z,30.68
2022-08-07T10:25:43.151Z,30.44
2022-08-07T10:29:08.047Z,31.01
2022-08-07T10:32:36.745Z,30.67
2022-08-07T10:36:16.989Z,30.81
2022-08-07T10:39:57.609Z,31.52
2022-08-07T10:43:15.460Z,31.75
2022-08-07T10:46:26.985Z,31.35
2022-08-07T10:49:49.307Z,31.23
2022-08-07T10:53:22.827Z,30.70
2022-08-07T10:56:54.575Z,30.82
2022-08-07T11:00:03.754Z,30.25
2022-08-07T11:03:23.747Z,31.33
2022-08-07T11:06:50.450Z,31.74
2022-08-07T11:10:07.230Z,30.29
2022-08-07T11:14:57.045Z,30.90
2022-08-07T11:17:01.998Z,32.83
2022-08-07T11:20:09.697Z,32.75
2022-08-07T11:23:30.513Z,32.23
2022-08-07T11:26:50.508Z,32.33
2022-08-07T11:30:18.673Z,30.92
2022-08-07T11:33:54.288Z,31.13
2022-08-07T11:37:38.554Z,30.60
2022-08-07T11:41:18.228Z,30.47
2022-08-07T11:44:52.562Z,28.92
2022-08-07T11:48:29.238Z,28.73
2022-08-07T11:51:50.733Z,27.62
2022-08-07T11:55:18.712Z,28.11
2022-08-07T11:58:39.279Z,28.31
2022-08-07T12:02:20.655Z,26.52
2022-08-07T12:05:49.394Z,23.76
2022-08-07T12:09:40.221Z,25.71
2022-08-07T12:13:11.636Z,25.12
2022-08-07T12:16:30.234Z,26.24
2022-08-07T12:20:02.753Z,26.57
2022-08-07T12:24:05.860Z,26.33
2022-08-07T12:26:58.740Z,25.45
2022-08-07T12:30:07.531Z,24.06
2022-08-07T12:33:28.241Z,23.26
2022-08-07T12:36:34.825Z,23.91
2022-08-07T12:39:50.552Z,23.72
2022-08-07T12:42:57.391Z,24.51
2022-08-07T12:46:10.456Z,23.38
2022-08-07T12:49:51.699Z,24.48
2022-08-07T12:53:18.960Z,24.08
2022-08-07T12:56:36.235Z,23.68
2022-08-07T12:59:54.544Z,25.17
2022-08-07T13:03:26.812Z,26.58
2022-08-07T13:07:08.970Z,25.42
2022-08-07T13:10:51.734Z,25.13
2022-08-07T13:14:18.474Z,25.32
2022-08-07T13:17:40.624Z,28.22
2022-08-07T13:20:51.084Z,27.63
2022-08-07T13:24:04.747Z,28.69
2022-08-07T13:27:20.819Z,29.61
2022-08-07T13:30:40.030Z,29.73
2022-08-07T13:34:32.092Z,28.41
2022-08-07T13:38:02.331Z,28.89
2022-08-07T13:41:35.025Z,28.96
2022-08-07T13:44:39.594Z,28.49
2022-08-07T13:48:07.721Z,28.97
2022-08-07T13:51:27.461Z,28.88
2022-08-07T13:54:33.594Z,29.14
2022-08-07T13:57:39.708Z,30.02
2022-08-07T14:01:10.957Z,29.69
2022-08-07T14:04:16.341Z,30.32
2022-08-07T14:07:28.523Z,29.98
2022-08-07T14:10:42.079Z,30.23
2022-08-07T14:13:55.080Z,30.76
2022-08-07T14:17:32.233Z,31.26
2022-08-07T14:20:41.190Z,30.66
2022-08-07T14:24:01.048Z,30.67
2022-08-07T14:27:16.201Z,30.35
2022-08-07T14:34:01.601Z,31.71
2022-08-07T14:37:16.304Z,32.72
2022-08-07T14:40:27.259Z,31.41
2022-08-07T14:43:58.469Z,31.12
2022-08-07T14:47:08.901Z,31.06
2022-08-07T14:50:22.549Z,31.32
2022-08-07T14:54:03.573Z,30.66
2022-08-07T14:56:57.018Z,31.54
2022-08-07T15:00:03.577Z,30.88
2022-08-07T15:03:18.658Z,32.05
2022-08-07T15:06:25.253Z,32.03
2022-08-07T15:13:06.323Z,31.93
2022-08-07T15:16:14.626Z,33.39
2022-08-07T15:19:22.546Z,33.70
2022-08-07T15:22:53.956Z,33.06
2022-08-07T15:25:58.369Z,33.33
2022-08-07T15:30:06.582Z,33.40
2022-08-07T15:32:39.854Z,32.58
2022-08-07T15:36:01.175Z,32.37
2022-08-07T15:39:10.513Z,31.83
2022-08-07T15:42:43.863Z,31.78
2022-08-07T15:45:58.263Z,32.35
2022-08-07T15:49:12.917Z,33.14
2022-08-07T15:52:30.162Z,33.15
2022-08-07T15:55:53.804Z,33.57
2022-08-07T15:59:01.082Z,32.86
2022-08-07T16:02:06.860Z,33.35
2022-08-07T16:05:20.050Z,33.61
2022-08-07T16:08:37.878Z,33.13
2022-08-07T16:12:12.495Z,32.66
2022-08-07T16:15:55.466Z,32.98
2022-08-07T16:19:42.531Z,34.01
2022-08-07T16:22:56.629Z,34.06
2022-08-07T16:26:02.251Z,34.16
2022-08-07T16:30:11.936Z,34.09
2022-08-07T16:34:03.182Z,33.88
2022-08-07T16:37:01.669Z,34.21
2022-08-07T16:40:33.538Z,34.30
2022-08-07T16:44:02.348Z,34.75
2022-08-07T16:47:18.664Z,34.87
2022-08-07T16:51:20.484Z,35.19
2022-08-07T16:54:54.202Z,34.75
2022-08-07T16:59:10.236Z,35.50
2022-08-07T17:02:51.181Z,35.64
2022-08-07T17:06:29.976Z,35.48
2022-08-07T17:10:05.200Z,35.65
2022-08-07T17:13:21.246Z,35.60
2022-08-07T17:16:43.664Z,35.67
2022-08-07T17:20:02.567Z,35.98
2022-08-07T17:23:17.183Z,36.33
2022-08-07T17:26:36.824Z,35.90
2022-08-07T17:30:19.710Z,36.47
2022-08-07T17:34:10.195Z,35.97
2022-08-07T17:37:14.256Z,36.05
2022-08-07T17:40:39.761Z,36.06
2022-08-07T17:44:03.153Z,35.91
2022-08-07T17:47:38.393Z,36.25
2022-08-07T17:50:57.385Z,36.59
2022-08-07T17:54:39.566Z,36.72
2022-08-07T17:57:56.286Z,36.87
2022-08-07T18:01:21.150Z,37.02
2022-08-07T18:04:35.086Z,36.77
2022-08-07T18:07:37.676Z,36.84
2022-08-07T18:12:16.257Z,36.91
2022-08-07T18:14:37.554Z,37.05
2022-08-07T18:18:44.853Z,37.19
2022-08-07T18:21:38.269Z,37.10
2022-08-07T18:25:01.513Z,37.13
2022-08-07T18:28:35.190Z,37.45
2022-08-07T18:31:57.805Z,37.13
2022-08-07T18:35:10.425Z,36.88
2022-08-07T18:38:59.590Z,37.09
2022-08-07T18:42:29.276Z,37.13
2022-08-07T18:46:25.081Z,36.85
2022-08-07T18:50:31.269Z,37.29
2022-08-07T18:53:21.923Z,37.46
2022-08-07T18:56:58.936Z,36.23
2022-08-07T19:00:34.507Z,34.58
2022-08-07T19:03:43.885Z,34.72
2022-08-07T19:06:56.485Z,35.00
2022-08-07T19:10:12.131Z,35.08
2022-08-07T19:13:55.346Z,35.13
2022-08-07T19:17:08.136Z,35.38
2022-08-07T19:20:28.827Z,35.79
2022-08-07T19:23:59.232Z,35.73
2022-08-07T19:28:57.600Z,35.85
2022-08-07T19:30:55.493Z,35.99
2022-08-07T19:34:02.593Z,36.11
2022-08-07T19:37:17.507Z,36.50
2022-08-07T19:40:30.555Z,35.85
2022-08-07T19:43:49.218Z,36.28
2022-08-07T19:47:05.018Z,36.39
2022-08-07T19:50:44.274Z,36.20
2022-08-07T19:54:33.257Z,36.43
2022-08-07T19:58:02.614Z,36.81
2022-08-07T20:00:28.814Z,36.94
2022-08-07T20:03:35.670Z,37.21
2022-08-07T20:06:42.996Z,37.49
2022-08-07T20:10:35.847Z,37.70
2022-08-07T20:13:22.639Z,37.90
2022-08-07T20:16:35.471Z,38.40
2022-08-07T20:19:48.307Z,38.75
2022-08-07T20:23:23.264Z,38.60
2022-08-07T20:26:45.065Z,38.69
2022-08-07T20:29:58.413Z,39.13
2022-08-07T20:33:05.755Z,39.59
2022-08-07T20:36:13.240Z,39.98
2022-08-07T20:40:01.362Z,40.16
2022-08-07T20:42:48.331Z,40.52
2022-08-07T20:46:27.694Z,39.02
2022-08-07T20:49:59.782Z,38.76
2022-08-07T20:52:51.335Z,38.87
2022-08-07T20:55:57.582Z,39.53
2022-08-07T20:59:05.146Z,39.71
2022-08-07T21:02:39.317Z,39.52
2022-08-07T21:05:55.714Z,39.84
2022-08-07T21:09:13.720Z,39.65
2022-08-07T21:12:29.116Z,39.67
2022-08-07T21:15:47.595Z,39.55
2022-08-07T21:19:01.115Z,39.68
2022-08-07T21:22:05.759Z,40.11
2022-08-07T21:25:19.159Z,40.21
2022-08-07T21:28:48.362Z,39.98
2022-08-07T21:32:46.897Z,39.89
2022-08-07T21:35:34.535Z,39.94
2022-08-07T21:39:45.138Z,40.53
2022-08-07T21:43:04.378Z,40.85
2022-08-07T21:46:24.880Z,40.53
2022-08-07T21:50:02.107Z,40.56
2022-08-07T21:53:16.994Z,40.68
2022-08-07T21:56:47.083Z,41.09
2022-08-07T22:00:09.283Z,41.38
2022-08-07T22:03:47.566Z,41.19
2022-08-07T22:07:10.056Z,41.74
2022-08-07T22:10:17.442Z,42.64
2022-08-07T22:13:24.685Z,41.37
2022-08-07T22:16:54.018Z,41.06
2022-08-07T22:20:24.007Z,41.35
2022-08-07T22:23:40.495Z,41.58
2022-08-07T22:26:50.763Z,42.07
2022-08-07T22:30:12.703Z,41.59
2022-08-07T22:33:17.166Z,41.88
2022-08-07T22:36:53.166Z,41.98
2022-08-07T22:40:22.499Z,41.77
2022-08-07T22:43:57.255Z,42.51
2022-08-07T22:47:23.185Z,42.73
2022-08-07T22:51:00.757Z,42.85
2022-08-07T22:54:08.757Z,43.19
2022-08-07T22:57:16.956Z,43.30
2022-08-07T23:00:28.385Z,43.89
2022-08-07T23:04:00.177Z,43.04
2022-08-07T23:07:41.258Z,42.83
2022-08-07T23:11:28.549Z,42.71
2022-08-07T23:15:06.528Z,42.61
2022-08-07T23:18:42.969Z,42.91
2022-08-07T23:21:56.088Z,42.90
2022-08-07T23:25:28.461Z,44.04
2022-08-07T23:29:00.458Z,42.84
2022-08-07T23:34:19.829Z,43.49
2022-08-07T23:35:29.097Z,43.66
2022-08-07T23:38:54.499Z,43.09
2022-08-07T23:42:25.573Z,42.69
2022-08-07T23:46:03.189Z,42.45
2022-08-07T23:49:50.278Z,43.24
2022-08-07T23:53:11.656Z,42.78
2022-08-07T23:56:37.855Z,43.65
